Capitol Logistics 310


CYHZ
Robert L. Stanfield International Airport
Halifax, CA
KRFD
Chicago/Rockford International Airport
Rockford, US

Route Details

Aircraft Information
Primary: Boeing 767-300BDSF
Backup: Not Available
Route Data
Distance: 1123nm
Sched. Duration: 2h 29m
Avg. Duration: 3h 16m (+86m)
Times Flown: 8
Recm'd Route: YSJ DERDO YUL Q824 LETAK Q848 SLLAP BAE
Planned Altitude: 34,000ft
Origin Wx: CYHZ 311400Z 01017G23KT 15SM OVC010 M01/M02 A2990 RMK SC8 SLP133
Dest. Wx: KRFD 311354Z 05012KT 10SM OVC021 04/M02 A3010 RMK AO2 SLP196 T00391017
Notes: LOBSTER KING

Financial History
Total Freight: 910,040lbs
Average Load: 113,755lbs/flt
Fuel Used: 288,182lbs
Avg. Fuel Used: 36,023lbs/flt
Fuel Expense: $230,546
Avg. Fuel Expense: $28,818
Avg. Fuel Cost: $0.80/lbs
Total Gross Income: $1,441,557
Pilot Pay: $1,702
Total Expenses: $156,104
Total Revenue: $1,048,220
Average Revenue: $180,194.64